Girouxville, Canada
Current Conditions -  °F | °C
As of 11:00 PM on Tuesday 27 Jan 2015 (Local Time) from CYPE Reporting Station
Overcast Overcast  
Wind Chill: -3°   Ceiling: 4000
Heat Index:   Visibility: 15mi
Dew Point:   Wind: 6mph
Humidity: 79%   Direction: 360°N
Pressure: 29.97"   Gusts: NA
Location:  55.75°N, 117.33°W
Report Text: CYPE 280600Z 36005KT 15SM OVC040 M14/M17 A2997 RMK SC8 /S01/ SLP197
Loading
Personal Weather Stations






























Interactive Weather Map New forecast layout! Learn more

10-Day Weather Forecast

Advertisements
Track Severe Weather on mobile